sensor_id;sensor_type;location;lat;lon;timestamp;P1;durP1;ratioP1;P2;durP2;ratioP2
76475;SDS011;65308;50.078;14.854;2022-11-20T00:00:00;48.10;;;19.50;;
76475;SDS011;65308;50.078;14.854;2022-11-20T00:02:28;41.53;;;16.93;;
76475;SDS011;65308;50.078;14.854;2022-11-20T00:04:54;38.97;;;16.55;;
76475;SDS011;65308;50.078;14.854;2022-11-20T00:07:20;40.75;;;16.42;;
76475;SDS011;65308;50.078;14.854;2022-11-20T00:09:45;45.87;;;16.80;;
76475;SDS011;65308;50.078;14.854;2022-11-20T00:12:10;39.10;;;15.47;;
76475;SDS011;65308;50.078;14.854;2022-11-20T00:14:36;36.80;;;15.55;;
76475;SDS011;65308;50.078;14.854;2022-11-20T00:17:01;39.77;;;14.67;;
76475;SDS011;65308;50.078;14.854;2022-11-20T00:19:26;40.15;;;15.48;;
76475;SDS011;65308;50.078;14.854;2022-11-20T00:21:52;38.30;;;15.93;;
76475;SDS011;65308;50.078;14.854;2022-11-20T00:24:18;37.30;;;14.80;;
76475;SDS011;65308;50.078;14.854;2022-11-20T00:26:44;39.40;;;14.70;;
76475;SDS011;65308;50.078;14.854;2022-11-20T00:29:09;36.00;;;14.30;;
76475;SDS011;65308;50.078;14.854;2022-11-20T00:31:35;40.00;;;16.08;;
76475;SDS011;65308;50.078;14.854;2022-11-20T00:34:01;39.08;;;13.82;;
76475;SDS011;65308;50.078;14.854;2022-11-20T00:36:27;39.70;;;15.80;;
76475;SDS011;65308;50.078;14.854;2022-11-20T00:38:54;39.58;;;14.88;;
76475;SDS011;65308;50.078;14.854;2022-11-20T00:41:21;33.85;;;14.50;;
76475;SDS011;65308;50.078;14.854;2022-11-20T00:43:47;36.92;;;15.10;;
76475;SDS011;65308;50.078;14.854;2022-11-20T00:46:14;30.38;;;13.95;;
76475;SDS011;65308;50.078;14.854;2022-11-20T00:48:44;42.08;;;16.38;;
76475;SDS011;65308;50.078;14.854;2022-11-20T00:51:14;34.17;;;14.65;;
76475;SDS011;65308;50.078;14.854;2022-11-20T00:53:41;37.58;;;16.25;;
76475;SDS011;65308;50.078;14.854;2022-11-20T00:56:09;37.70;;;14.35;;
76475;SDS011;65308;50.078;14.854;2022-11-20T00:58:37;40.20;;;17.15;;
76475;SDS011;65308;50.078;14.854;2022-11-20T01:03:35;36.13;;;14.82;;
76475;SDS011;65308;50.078;14.854;2022-11-20T01:08:59;43.78;;;16.48;;
76475;SDS011;65308;50.078;14.854;2022-11-20T01:11:32;41.17;;;17.27;;
76475;SDS011;65308;50.078;14.854;2022-11-20T01:14:00;40.65;;;15.60;;
76475;SDS011;65308;50.078;14.854;2022-11-20T01:16:31;43.38;;;16.52;;
76475;SDS011;65308;50.078;14.854;2022-11-20T01:21:31;43.58;;;15.02;;
76475;SDS011;65308;50.078;14.854;2022-11-20T01:23:58;36.10;;;14.93;;
76475;SDS011;65308;50.078;14.854;2022-11-20T01:26:28;44.10;;;17.25;;
76475;SDS011;65308;50.078;14.854;2022-11-20T01:28:58;38.15;;;16.05;;
76475;SDS011;65308;50.078;14.854;2022-11-20T01:31:29;44.60;;;18.30;;
76475;SDS011;65308;50.078;14.854;2022-11-20T01:33:56;46.30;;;18.75;;
76475;SDS011;65308;50.078;14.854;2022-11-20T01:36:24;48.28;;;18.63;;
76475;SDS011;65308;50.078;14.854;2022-11-20T01:38:51;45.65;;;17.58;;
76475;SDS011;65308;50.078;14.854;2022-11-20T01:41:18;44.30;;;18.55;;
76475;SDS011;65308;50.078;14.854;2022-11-20T01:44:03;45.97;;;19.30;;
76475;SDS011;65308;50.078;14.854;2022-11-20T01:46:29;49.88;;;20.63;;
76475;SDS011;65308;50.078;14.854;2022-11-20T01:48:58;42.88;;;17.58;;
76475;SDS011;65308;50.078;14.854;2022-11-20T01:51:30;42.67;;;18.27;;
76475;SDS011;65308;50.078;14.854;2022-11-20T01:54:04;44.33;;;18.70;;
76475;SDS011;65308;50.078;14.854;2022-11-20T01:56:38;43.15;;;18.63;;
76475;SDS011;65308;50.078;14.854;2022-11-20T01:59:08;47.25;;;19.08;;
76475;SDS011;65308;50.078;14.854;2022-11-20T02:01:37;43.70;;;18.50;;
76475;SDS011;65308;50.078;14.854;2022-11-20T02:04:04;49.28;;;20.55;;
76475;SDS011;65308;50.078;14.854;2022-11-20T02:06:44;44.95;;;19.48;;
76475;SDS011;65308;50.078;14.854;2022-11-20T02:09:13;47.67;;;20.08;;
76475;SDS011;65308;50.078;14.854;2022-11-20T02:11:39;46.95;;;20.13;;
76475;SDS011;65308;50.078;14.854;2022-11-20T02:14:04;48.58;;;20.80;;
76475;SDS011;65308;50.078;14.854;2022-11-20T02:16:31;46.45;;;18.88;;
76475;SDS011;65308;50.078;14.854;2022-11-20T02:19:02;49.17;;;20.30;;
76475;SDS011;65308;50.078;14.854;2022-11-20T02:24:12;51.75;;;20.67;;
76475;SDS011;65308;50.078;14.854;2022-11-20T02:32:00;49.95;;;20.38;;
76475;SDS011;65308;50.078;14.854;2022-11-20T02:34:27;48.88;;;20.67;;
76475;SDS011;65308;50.078;14.854;2022-11-20T02:36:53;46.80;;;19.45;;
76475;SDS011;65308;50.078;14.854;2022-11-20T02:39:20;46.67;;;19.27;;
76475;SDS011;65308;50.078;14.854;2022-11-20T02:41:47;48.40;;;20.88;;
76475;SDS011;65308;50.078;14.854;2022-11-20T02:44:13;52.05;;;20.77;;
76475;SDS011;65308;50.078;14.854;2022-11-20T02:46:38;46.47;;;19.47;;
76475;SDS011;65308;50.078;14.854;2022-11-20T02:49:04;49.25;;;20.30;;
76475;SDS011;65308;50.078;14.854;2022-11-20T02:51:30;45.80;;;19.90;;
76475;SDS011;65308;50.078;14.854;2022-11-20T02:53:56;48.42;;;20.33;;
76475;SDS011;65308;50.078;14.854;2022-11-20T02:56:22;46.15;;;20.15;;
76475;SDS011;65308;50.078;14.854;2022-11-20T02:58:47;42.33;;;18.80;;
76475;SDS011;65308;50.078;14.854;2022-11-20T03:01:13;44.92;;;19.58;;
76475;SDS011;65308;50.078;14.854;2022-11-20T03:03:39;48.80;;;20.60;;
76475;SDS011;65308;50.078;14.854;2022-11-20T03:06:04;49.28;;;21.02;;
76475;SDS011;65308;50.078;14.854;2022-11-20T03:08:30;63.30;;;24.65;;
76475;SDS011;65308;50.078;14.854;2022-11-20T03:10:55;47.97;;;19.30;;
76475;SDS011;65308;50.078;14.854;2022-11-20T03:13:21;43.27;;;17.73;;
76475;SDS011;65308;50.078;14.854;2022-11-20T03:15:46;44.10;;;18.27;;
76475;SDS011;65308;50.078;14.854;2022-11-20T03:18:11;47.92;;;18.70;;
76475;SDS011;65308;50.078;14.854;2022-11-20T03:20:38;43.50;;;18.60;;
76475;SDS011;65308;50.078;14.854;2022-11-20T03:23:04;41.88;;;18.58;;
76475;SDS011;65308;50.078;14.854;2022-11-20T03:25:30;43.40;;;17.08;;
76475;SDS011;65308;50.078;14.854;2022-11-20T03:27:55;42.50;;;17.52;;
76475;SDS011;65308;50.078;14.854;2022-11-20T03:30:21;38.33;;;17.17;;
76475;SDS011;65308;50.078;14.854;2022-11-20T03:32:47;45.22;;;16.98;;
76475;SDS011;65308;50.078;14.854;2022-11-20T03:35:12;39.22;;;16.67;;
76475;SDS011;65308;50.078;14.854;2022-11-20T03:37:37;41.10;;;16.90;;
76475;SDS011;65308;50.078;14.854;2022-11-20T03:40:03;39.20;;;16.17;;
76475;SDS011;65308;50.078;14.854;2022-11-20T03:42:29;39.20;;;16.27;;
76475;SDS011;65308;50.078;14.854;2022-11-20T03:45:13;41.33;;;17.80;;
76475;SDS011;65308;50.078;14.854;2022-11-20T03:47:40;39.65;;;16.40;;
76475;SDS011;65308;50.078;14.854;2022-11-20T03:50:06;41.10;;;16.73;;
76475;SDS011;65308;50.078;14.854;2022-11-20T03:52:32;42.60;;;17.42;;
76475;SDS011;65308;50.078;14.854;2022-11-20T03:54:58;41.90;;;17.23;;
76475;SDS011;65308;50.078;14.854;2022-11-20T03:57:23;42.40;;;16.92;;
76475;SDS011;65308;50.078;14.854;2022-11-20T03:59:49;42.20;;;17.73;;
76475;SDS011;65308;50.078;14.854;2022-11-20T04:02:14;41.58;;;17.17;;
76475;SDS011;65308;50.078;14.854;2022-11-20T04:04:39;40.70;;;15.53;;
76475;SDS011;65308;50.078;14.854;2022-11-20T04:07:05;41.77;;;17.00;;
76475;SDS011;65308;50.078;14.854;2022-11-20T04:09:30;41.47;;;16.20;;
76475;SDS011;65308;50.078;14.854;2022-11-20T04:11:55;35.95;;;15.27;;
76475;SDS011;65308;50.078;14.854;2022-11-20T04:14:21;34.38;;;15.50;;
76475;SDS011;65308;50.078;14.854;2022-11-20T04:16:46;42.25;;;16.92;;
76475;SDS011;65308;50.078;14.854;2022-11-20T04:19:13;44.70;;;16.55;;
76475;SDS011;65308;50.078;14.854;2022-11-20T04:21:40;41.10;;;17.08;;
76475;SDS011;65308;50.078;14.854;2022-11-20T04:24:06;40.42;;;16.90;;
76475;SDS011;65308;50.078;14.854;2022-11-20T04:26:32;37.28;;;16.13;;
76475;SDS011;65308;50.078;14.854;2022-11-20T04:28:58;41.20;;;17.65;;
76475;SDS011;65308;50.078;14.854;2022-11-20T04:31:25;40.25;;;16.58;;
76475;SDS011;65308;50.078;14.854;2022-11-20T04:33:53;36.55;;;16.05;;
76475;SDS011;65308;50.078;14.854;2022-11-20T04:36:22;42.60;;;18.33;;
76475;SDS011;65308;50.078;14.854;2022-11-20T04:38:53;44.60;;;18.77;;
76475;SDS011;65308;50.078;14.854;2022-11-20T04:41:21;50.28;;;19.38;;
76475;SDS011;65308;50.078;14.854;2022-11-20T04:43:51;45.40;;;18.38;;
76475;SDS011;65308;50.078;14.854;2022-11-20T04:46:19;46.92;;;18.63;;
76475;SDS011;65308;50.078;14.854;2022-11-20T04:48:45;41.60;;;17.65;;
76475;SDS011;65308;50.078;14.854;2022-11-20T04:51:11;46.63;;;18.20;;
76475;SDS011;65308;50.078;14.854;2022-11-20T04:53:37;45.47;;;17.65;;
76475;SDS011;65308;50.078;14.854;2022-11-20T04:56:03;44.97;;;19.08;;
76475;SDS011;65308;50.078;14.854;2022-11-20T04:58:33;44.00;;;17.52;;
76475;SDS011;65308;50.078;14.854;2022-11-20T05:01:03;40.40;;;17.60;;
76475;SDS011;65308;50.078;14.854;2022-11-20T05:03:30;41.45;;;18.10;;
76475;SDS011;65308;50.078;14.854;2022-11-20T05:05:56;42.47;;;18.05;;
76475;SDS011;65308;50.078;14.854;2022-11-20T05:08:24;39.25;;;16.98;;
76475;SDS011;65308;50.078;14.854;2022-11-20T05:10:50;43.30;;;18.20;;
76475;SDS011;65308;50.078;14.854;2022-11-20T05:13:15;40.10;;;17.70;;
76475;SDS011;65308;50.078;14.854;2022-11-20T05:15:40;41.13;;;17.87;;
76475;SDS011;65308;50.078;14.854;2022-11-20T05:18:06;41.73;;;17.60;;
76475;SDS011;65308;50.078;14.854;2022-11-20T05:20:32;43.22;;;17.15;;
76475;SDS011;65308;50.078;14.854;2022-11-20T05:22:58;42.17;;;17.33;;
76475;SDS011;65308;50.078;14.854;2022-11-20T05:25:23;44.95;;;19.30;;
76475;SDS011;65308;50.078;14.854;2022-11-20T05:27:48;42.40;;;18.15;;
76475;SDS011;65308;50.078;14.854;2022-11-20T05:30:14;44.97;;;18.57;;
76475;SDS011;65308;50.078;14.854;2022-11-20T05:32:39;42.38;;;18.33;;
76475;SDS011;65308;50.078;14.854;2022-11-20T05:35:05;42.22;;;18.42;;
76475;SDS011;65308;50.078;14.854;2022-11-20T05:37:30;40.92;;;18.05;;
76475;SDS011;65308;50.078;14.854;2022-11-20T05:39:55;42.73;;;19.03;;
76475;SDS011;65308;50.078;14.854;2022-11-20T05:42:21;43.80;;;18.43;;
76475;SDS011;65308;50.078;14.854;2022-11-20T05:44:56;38.78;;;17.30;;
76475;SDS011;65308;50.078;14.854;2022-11-20T05:47:25;41.80;;;18.63;;
76475;SDS011;65308;50.078;14.854;2022-11-20T05:49:51;44.17;;;17.73;;
76475;SDS011;65308;50.078;14.854;2022-11-20T05:52:17;41.92;;;18.35;;
76475;SDS011;65308;50.078;14.854;2022-11-20T05:54:42;43.22;;;19.10;;
76475;SDS011;65308;50.078;14.854;2022-11-20T05:57:08;39.25;;;17.65;;
76475;SDS011;65308;50.078;14.854;2022-11-20T05:59:33;42.38;;;17.77;;
76475;SDS011;65308;50.078;14.854;2022-11-20T06:01:59;41.63;;;18.58;;
76475;SDS011;65308;50.078;14.854;2022-11-20T06:04:24;39.58;;;17.55;;
76475;SDS011;65308;50.078;14.854;2022-11-20T06:06:50;44.45;;;18.70;;
76475;SDS011;65308;50.078;14.854;2022-11-20T06:09:16;40.08;;;18.45;;
76475;SDS011;65308;50.078;14.854;2022-11-20T06:11:41;44.77;;;18.50;;
76475;SDS011;65308;50.078;14.854;2022-11-20T06:14:07;41.17;;;19.57;;
76475;SDS011;65308;50.078;14.854;2022-11-20T06:16:32;40.00;;;19.15;;
76475;SDS011;65308;50.078;14.854;2022-11-20T06:18:57;45.20;;;18.80;;
76475;SDS011;65308;50.078;14.854;2022-11-20T06:21:23;40.80;;;18.70;;
76475;SDS011;65308;50.078;14.854;2022-11-20T06:23:49;41.55;;;17.83;;
76475;SDS011;65308;50.078;14.854;2022-11-20T06:26:16;42.67;;;18.25;;
76475;SDS011;65308;50.078;14.854;2022-11-20T06:28:46;41.85;;;19.25;;
76475;SDS011;65308;50.078;14.854;2022-11-20T06:31:13;40.75;;;19.13;;
76475;SDS011;65308;50.078;14.854;2022-11-20T06:33:40;48.17;;;19.50;;
76475;SDS011;65308;50.078;14.854;2022-11-20T06:36:09;43.65;;;19.58;;
76475;SDS011;65308;50.078;14.854;2022-11-20T06:38:35;44.63;;;19.45;;
76475;SDS011;65308;50.078;14.854;2022-11-20T06:41:02;42.13;;;19.15;;
76475;SDS011;65308;50.078;14.854;2022-11-20T06:43:28;43.78;;;19.42;;
76475;SDS011;65308;50.078;14.854;2022-11-20T06:45:55;42.97;;;19.73;;
76475;SDS011;65308;50.078;14.854;2022-11-20T06:48:28;41.08;;;18.38;;
76475;SDS011;65308;50.078;14.854;2022-11-20T06:50:54;42.88;;;18.60;;
76475;SDS011;65308;50.078;14.854;2022-11-20T06:53:21;43.22;;;19.77;;
76475;SDS011;65308;50.078;14.854;2022-11-20T06:55:47;45.53;;;18.67;;
76475;SDS011;65308;50.078;14.854;2022-11-20T06:58:13;45.38;;;19.90;;
76475;SDS011;65308;50.078;14.854;2022-11-20T07:00:40;47.25;;;21.52;;
76475;SDS011;65308;50.078;14.854;2022-11-20T07:03:06;42.03;;;18.88;;
76475;SDS011;65308;50.078;14.854;2022-11-20T07:05:32;42.13;;;18.80;;
76475;SDS011;65308;50.078;14.854;2022-11-20T07:07:58;45.47;;;18.95;;
76475;SDS011;65308;50.078;14.854;2022-11-20T07:10:24;43.15;;;19.92;;
76475;SDS011;65308;50.078;14.854;2022-11-20T07:12:51;46.58;;;20.95;;
76475;SDS011;65308;50.078;14.854;2022-11-20T07:15:19;43.00;;;19.48;;
76475;SDS011;65308;50.078;14.854;2022-11-20T07:17:45;43.60;;;20.50;;
76475;SDS011;65308;50.078;14.854;2022-11-20T07:20:11;45.33;;;19.90;;
76475;SDS011;65308;50.078;14.854;2022-11-20T07:22:37;41.38;;;19.00;;
76475;SDS011;65308;50.078;14.854;2022-11-20T07:25:03;44.77;;;19.63;;
76475;SDS011;65308;50.078;14.854;2022-11-20T07:27:29;42.17;;;19.70;;
76475;SDS011;65308;50.078;14.854;2022-11-20T07:29:54;44.92;;;20.05;;
76475;SDS011;65308;50.078;14.854;2022-11-20T07:32:20;43.85;;;20.48;;
76475;SDS011;65308;50.078;14.854;2022-11-20T07:34:46;45.10;;;20.15;;
76475;SDS011;65308;50.078;14.854;2022-11-20T07:37:12;47.45;;;20.27;;
76475;SDS011;65308;50.078;14.854;2022-11-20T07:39:38;43.78;;;19.92;;
76475;SDS011;65308;50.078;14.854;2022-11-20T07:42:03;43.07;;;19.50;;
76475;SDS011;65308;50.078;14.854;2022-11-20T07:44:29;43.43;;;19.87;;
76475;SDS011;65308;50.078;14.854;2022-11-20T07:46:54;44.90;;;20.50;;
76475;SDS011;65308;50.078;14.854;2022-11-20T07:49:20;52.13;;;24.45;;
76475;SDS011;65308;50.078;14.854;2022-11-20T07:51:45;45.17;;;20.77;;
76475;SDS011;65308;50.078;14.854;2022-11-20T07:54:11;43.45;;;19.45;;
76475;SDS011;65308;50.078;14.854;2022-11-20T07:56:36;42.40;;;19.63;;
76475;SDS011;65308;50.078;14.854;2022-11-20T07:59:01;48.70;;;22.58;;
76475;SDS011;65308;50.078;14.854;2022-11-20T08:01:28;51.58;;;21.85;;
76475;SDS011;65308;50.078;14.854;2022-11-20T08:03:54;42.50;;;20.40;;
76475;SDS011;65308;50.078;14.854;2022-11-20T08:06:21;50.05;;;22.58;;
76475;SDS011;65308;50.078;14.854;2022-11-20T08:08:46;48.47;;;20.02;;
76475;SDS011;65308;50.078;14.854;2022-11-20T08:11:11;49.03;;;22.37;;
76475;SDS011;65308;50.078;14.854;2022-11-20T08:13:55;57.85;;;25.42;;
76475;SDS011;65308;50.078;14.854;2022-11-20T08:16:44;46.67;;;22.27;;
76475;SDS011;65308;50.078;14.854;2022-11-20T08:19:15;50.58;;;20.63;;
76475;SDS011;65308;50.078;14.854;2022-11-20T08:21:42;47.15;;;20.27;;
76475;SDS011;65308;50.078;14.854;2022-11-20T08:24:09;50.45;;;23.83;;
76475;SDS011;65308;50.078;14.854;2022-11-20T08:26:36;43.63;;;20.25;;
76475;SDS011;65308;50.078;14.854;2022-11-20T08:29:03;50.45;;;22.88;;
76475;SDS011;65308;50.078;14.854;2022-11-20T08:31:28;54.00;;;23.35;;
76475;SDS011;65308;50.078;14.854;2022-11-20T08:33:55;45.65;;;21.13;;
76475;SDS011;65308;50.078;14.854;2022-11-20T08:36:22;49.65;;;22.48;;
76475;SDS011;65308;50.078;14.854;2022-11-20T08:39:10;47.17;;;20.65;;
76475;SDS011;65308;50.078;14.854;2022-11-20T08:41:38;45.67;;;22.38;;
76475;SDS011;65308;50.078;14.854;2022-11-20T08:44:04;47.63;;;21.77;;
76475;SDS011;65308;50.078;14.854;2022-11-20T08:46:38;51.95;;;23.30;;
76475;SDS011;65308;50.078;14.854;2022-11-20T08:49:06;46.95;;;21.95;;
76475;SDS011;65308;50.078;14.854;2022-11-20T08:51:34;50.17;;;23.50;;
76475;SDS011;65308;50.078;14.854;2022-11-20T08:54:00;57.65;;;27.65;;
76475;SDS011;65308;50.078;14.854;2022-11-20T08:56:26;52.78;;;23.02;;
76475;SDS011;65308;50.078;14.854;2022-11-20T08:58:51;48.20;;;22.10;;
76475;SDS011;65308;50.078;14.854;2022-11-20T09:01:18;46.08;;;21.70;;
76475;SDS011;65308;50.078;14.854;2022-11-20T09:03:45;49.28;;;22.77;;
76475;SDS011;65308;50.078;14.854;2022-11-20T09:06:10;48.75;;;23.30;;
76475;SDS011;65308;50.078;14.854;2022-11-20T09:08:36;44.83;;;21.80;;
76475;SDS011;65308;50.078;14.854;2022-11-20T09:11:02;45.92;;;21.35;;
76475;SDS011;65308;50.078;14.854;2022-11-20T09:13:28;43.63;;;21.35;;
76475;SDS011;65308;50.078;14.854;2022-11-20T09:15:58;46.33;;;22.25;;
76475;SDS011;65308;50.078;14.854;2022-11-20T09:18:25;43.58;;;20.40;;
76475;SDS011;65308;50.078;14.854;2022-11-20T09:20:51;51.15;;;23.02;;
76475;SDS011;65308;50.078;14.854;2022-11-20T09:23:20;47.10;;;22.05;;
76475;SDS011;65308;50.078;14.854;2022-11-20T09:25:46;50.45;;;22.88;;
76475;SDS011;65308;50.078;14.854;2022-11-20T09:28:11;47.17;;;22.27;;
76475;SDS011;65308;50.078;14.854;2022-11-20T09:30:37;48.13;;;22.73;;
76475;SDS011;65308;50.078;14.854;2022-11-20T09:33:03;47.08;;;21.77;;
76475;SDS011;65308;50.078;14.854;2022-11-20T09:35:29;46.08;;;21.63;;
76475;SDS011;65308;50.078;14.854;2022-11-20T09:37:55;46.42;;;21.13;;
76475;SDS011;65308;50.078;14.854;2022-11-20T09:40:21;39.97;;;19.50;;
76475;SDS011;65308;50.078;14.854;2022-11-20T09:51:35;41.33;;;20.70;;
76475;SDS011;65308;50.078;14.854;2022-11-20T09:54:09;36.97;;;18.70;;
76475;SDS011;65308;50.078;14.854;2022-11-20T09:56:42;38.95;;;19.23;;
76475;SDS011;65308;50.078;14.854;2022-11-20T09:59:27;40.53;;;18.90;;
76475;SDS011;65308;50.078;14.854;2022-11-20T10:02:00;40.88;;;19.08;;
76475;SDS011;65308;50.078;14.854;2022-11-20T10:04:36;43.17;;;19.52;;
76475;SDS011;65308;50.078;14.854;2022-11-20T10:07:16;44.42;;;21.30;;
76475;SDS011;65308;50.078;14.854;2022-11-20T10:09:55;41.78;;;20.17;;
76475;SDS011;65308;50.078;14.854;2022-11-20T10:28:29;47.60;;;21.63;;
76475;SDS011;65308;50.078;14.854;2022-11-20T10:31:03;50.78;;;25.80;;
76475;SDS011;65308;50.078;14.854;2022-11-20T10:33:38;52.63;;;23.80;;
76475;SDS011;65308;50.078;14.854;2022-11-20T10:36:25;54.08;;;28.08;;
76475;SDS011;65308;50.078;14.854;2022-11-20T10:38:57;50.60;;;24.48;;
76475;SDS011;65308;50.078;14.854;2022-11-20T10:41:28;51.75;;;24.20;;
76475;SDS011;65308;50.078;14.854;2022-11-20T10:44:09;49.58;;;25.77;;
76475;SDS011;65308;50.078;14.854;2022-11-20T10:46:45;50.03;;;23.27;;
76475;SDS011;65308;50.078;14.854;2022-11-20T10:49:15;49.85;;;23.90;;
76475;SDS011;65308;50.078;14.854;2022-11-20T10:57:00;47.88;;;23.00;;
76475;SDS011;65308;50.078;14.854;2022-11-20T10:59:53;60.67;;;31.48;;
76475;SDS011;65308;50.078;14.854;2022-11-20T11:02:33;54.17;;;24.63;;
76475;SDS011;65308;50.078;14.854;2022-11-20T11:05:12;46.42;;;23.13;;
76475;SDS011;65308;50.078;14.854;2022-11-20T11:07:51;48.35;;;22.02;;
76475;SDS011;65308;50.078;14.854;2022-11-20T11:10:24;48.95;;;23.55;;
76475;SDS011;65308;50.078;14.854;2022-11-20T11:12:56;52.67;;;23.40;;
76475;SDS011;65308;50.078;14.854;2022-11-20T11:15:28;47.80;;;23.92;;
76475;SDS011;65308;50.078;14.854;2022-11-20T11:18:01;49.35;;;24.63;;
76475;SDS011;65308;50.078;14.854;2022-11-20T11:20:27;49.05;;;23.50;;
76475;SDS011;65308;50.078;14.854;2022-11-20T11:22:54;47.45;;;23.55;;
76475;SDS011;65308;50.078;14.854;2022-11-20T11:28:21;48.33;;;22.58;;
76475;SDS011;65308;50.078;14.854;2022-11-20T11:33:20;49.58;;;23.42;;
76475;SDS011;65308;50.078;14.854;2022-11-20T11:35:48;48.58;;;25.15;;
76475;SDS011;65308;50.078;14.854;2022-11-20T11:38:19;50.85;;;25.25;;
76475;SDS011;65308;50.078;14.854;2022-11-20T11:40:47;48.85;;;24.20;;
76475;SDS011;65308;50.078;14.854;2022-11-20T11:43:17;59.28;;;29.38;;
76475;SDS011;65308;50.078;14.854;2022-11-20T11:46:28;53.25;;;25.02;;
76475;SDS011;65308;50.078;14.854;2022-11-20T11:51:37;44.97;;;22.38;;
76475;SDS011;65308;50.078;14.854;2022-11-20T11:54:20;54.55;;;28.88;;
76475;SDS011;65308;50.078;14.854;2022-11-20T11:56:49;55.83;;;25.55;;
76475;SDS011;65308;50.078;14.854;2022-11-20T12:00:03;53.53;;;25.85;;
76475;SDS011;65308;50.078;14.854;2022-11-20T12:02:10;50.70;;;22.85;;
76475;SDS011;65308;50.078;14.854;2022-11-20T12:05:25;56.92;;;28.95;;
76475;SDS011;65308;50.078;14.854;2022-11-20T12:08:05;52.20;;;25.42;;
76475;SDS011;65308;50.078;14.854;2022-11-20T12:11:03;58.65;;;28.40;;
76475;SDS011;65308;50.078;14.854;2022-11-20T12:16:23;55.58;;;28.55;;
76475;SDS011;65308;50.078;14.854;2022-11-20T12:18:49;50.40;;;24.83;;
76475;SDS011;65308;50.078;14.854;2022-11-20T12:29:09;59.53;;;26.65;;
76475;SDS011;65308;50.078;14.854;2022-11-20T12:37:15;48.30;;;23.90;;
76475;SDS011;65308;50.078;14.854;2022-11-20T12:39:55;49.53;;;24.67;;
76475;SDS011;65308;50.078;14.854;2022-11-20T12:42:35;55.55;;;27.00;;
76475;SDS011;65308;50.078;14.854;2022-11-20T12:48:20;54.75;;;26.63;;
76475;SDS011;65308;50.078;14.854;2022-11-20T12:52:40;51.80;;;24.42;;
76475;SDS011;65308;50.078;14.854;2022-11-20T12:55:25;52.10;;;24.35;;
76475;SDS011;65308;50.078;14.854;2022-11-20T12:58:01;52.38;;;24.75;;
76475;SDS011;65308;50.078;14.854;2022-11-20T13:00:37;53.22;;;23.70;;
76475;SDS011;65308;50.078;14.854;2022-11-20T13:03:16;60.63;;;31.33;;
76475;SDS011;65308;50.078;14.854;2022-11-20T13:06:05;53.17;;;25.65;;
76475;SDS011;65308;50.078;14.854;2022-11-20T13:08:40;51.30;;;24.95;;
76475;SDS011;65308;50.078;14.854;2022-11-20T13:11:11;52.00;;;25.08;;
76475;SDS011;65308;50.078;14.854;2022-11-20T13:13:47;52.67;;;25.15;;
76475;SDS011;65308;50.078;14.854;2022-11-20T13:16:28;51.40;;;25.45;;
76475;SDS011;65308;50.078;14.854;2022-11-20T13:19:02;50.13;;;23.55;;
76475;SDS011;65308;50.078;14.854;2022-11-20T13:21:37;54.67;;;25.15;;
76475;SDS011;65308;50.078;14.854;2022-11-20T13:24:07;53.97;;;26.42;;
76475;SDS011;65308;50.078;14.854;2022-11-20T13:26:59;55.00;;;26.75;;
76475;SDS011;65308;50.078;14.854;2022-11-20T13:29:27;56.72;;;26.65;;
76475;SDS011;65308;50.078;14.854;2022-11-20T13:32:02;55.38;;;26.80;;
76475;SDS011;65308;50.078;14.854;2022-11-20T13:34:31;60.08;;;27.27;;
76475;SDS011;65308;50.078;14.854;2022-11-20T13:37:02;59.35;;;27.85;;
76475;SDS011;65308;50.078;14.854;2022-11-20T13:39:31;54.33;;;25.83;;
76475;SDS011;65308;50.078;14.854;2022-11-20T13:42:00;47.97;;;23.52;;
76475;SDS011;65308;50.078;14.854;2022-11-20T13:44:33;52.05;;;25.38;;
76475;SDS011;65308;50.078;14.854;2022-11-20T13:47:04;49.97;;;25.45;;
76475;SDS011;65308;50.078;14.854;2022-11-20T13:49:47;57.63;;;25.75;;
76475;SDS011;65308;50.078;14.854;2022-11-20T13:52:28;55.75;;;26.13;;
76475;SDS011;65308;50.078;14.854;2022-11-20T13:55:12;50.22;;;24.05;;
76475;SDS011;65308;50.078;14.854;2022-11-20T13:57:51;52.10;;;24.55;;
76475;SDS011;65308;50.078;14.854;2022-11-20T14:00:28;52.47;;;24.70;;
76475;SDS011;65308;50.078;14.854;2022-11-20T14:03:01;56.83;;;26.92;;
76475;SDS011;65308;50.078;14.854;2022-11-20T14:05:35;52.60;;;25.08;;
76475;SDS011;65308;50.078;14.854;2022-11-20T14:08:05;55.83;;;25.00;;
76475;SDS011;65308;50.078;14.854;2022-11-20T14:10:39;54.80;;;24.85;;
76475;SDS011;65308;50.078;14.854;2022-11-20T14:13:15;52.72;;;23.92;;
76475;SDS011;65308;50.078;14.854;2022-11-20T14:15:44;51.33;;;24.15;;
76475;SDS011;65308;50.078;14.854;2022-11-20T14:18:12;51.05;;;23.98;;
76475;SDS011;65308;50.078;14.854;2022-11-20T14:20:41;49.88;;;23.90;;
76475;SDS011;65308;50.078;14.854;2022-11-20T14:23:09;56.53;;;26.13;;
76475;SDS011;65308;50.078;14.854;2022-11-20T14:25:43;50.45;;;24.38;;
76475;SDS011;65308;50.078;14.854;2022-11-20T14:28:17;54.00;;;24.92;;
76475;SDS011;65308;50.078;14.854;2022-11-20T14:30:51;54.20;;;24.13;;
76475;SDS011;65308;50.078;14.854;2022-11-20T14:33:18;48.22;;;23.23;;
76475;SDS011;65308;50.078;14.854;2022-11-20T14:35:50;51.47;;;24.48;;
76475;SDS011;65308;50.078;14.854;2022-11-20T14:38:19;49.80;;;24.50;;
76475;SDS011;65308;50.078;14.854;2022-11-20T14:40:51;53.25;;;24.88;;
76475;SDS011;65308;50.078;14.854;2022-11-20T14:43:19;57.97;;;28.13;;
76475;SDS011;65308;50.078;14.854;2022-11-20T14:45:50;50.75;;;25.35;;
76475;SDS011;65308;50.078;14.854;2022-11-20T14:48:22;49.17;;;22.83;;
76475;SDS011;65308;50.078;14.854;2022-11-20T14:50:54;54.72;;;25.20;;
76475;SDS011;65308;50.078;14.854;2022-11-20T14:53:25;48.50;;;23.05;;
76475;SDS011;65308;50.078;14.854;2022-11-20T14:55:57;45.22;;;21.55;;
76475;SDS011;65308;50.078;14.854;2022-11-20T14:58:27;47.90;;;23.77;;
76475;SDS011;65308;50.078;14.854;2022-11-20T15:00:56;51.35;;;24.15;;
76475;SDS011;65308;50.078;14.854;2022-11-20T15:03:31;54.85;;;26.17;;
76475;SDS011;65308;50.078;14.854;2022-11-20T15:05:59;45.03;;;22.63;;
76475;SDS011;65308;50.078;14.854;2022-11-20T15:08:27;48.95;;;22.73;;
76475;SDS011;65308;50.078;14.854;2022-11-20T15:10:53;51.55;;;23.10;;
76475;SDS011;65308;50.078;14.854;2022-11-20T15:13:26;49.13;;;23.05;;
76475;SDS011;65308;50.078;14.854;2022-11-20T15:15:57;49.33;;;22.98;;
76475;SDS011;65308;50.078;14.854;2022-11-20T15:18:26;51.10;;;23.58;;
76475;SDS011;65308;50.078;14.854;2022-11-20T15:20:57;53.67;;;25.98;;
76475;SDS011;65308;50.078;14.854;2022-11-20T15:23:26;52.13;;;25.90;;
76475;SDS011;65308;50.078;14.854;2022-11-20T15:25:54;56.70;;;27.83;;
76475;SDS011;65308;50.078;14.854;2022-11-20T15:28:21;62.97;;;31.15;;
76475;SDS011;65308;50.078;14.854;2022-11-20T15:30:55;52.78;;;22.40;;
76475;SDS011;65308;50.078;14.854;2022-11-20T15:33:22;54.38;;;25.65;;
76475;SDS011;65308;50.078;14.854;2022-11-20T15:35:49;54.70;;;26.50;;